Time;durP1;ratioP1;P1;durP2;ratioP2;P2;SDS_P1;SDS_P2;PMS_P1;PMS_P2;Temp;Humidity;BMP_temperature;BMP_pressure;BME280_temperature;BME280_humidity;BME280_pressure;Samples;Min_cycle;Max_cycle;Signal;HPM_P1;HPM_P2
2023/06/02 00:01:13;;;;;;;17.00;4.07;;;9.90;99.90;;;;;;5024031;28;20472;-82
2023/06/02 00:03:42;;;;;;;17.83;4.33;;;9.90;99.90;;;;;;5019090;28;20237;-82
2023/06/02 00:06:11;;;;;;;21.10;4.53;;;9.90;99.90;;;;;;5042917;28;20902;-81
2023/06/02 00:08:40;;;;;;;13.90;4.90;;;9.90;99.90;;;;;;5040992;28;20224;-81
2023/06/02 00:11:07;;;;;;;19.13;4.93;;;9.90;99.90;;;;;;5042632;28;20240;-82
2023/06/02 00:13:36;;;;;;;17.40;4.80;;;9.90;99.90;;;;;;5048084;28;20224;-81
2023/06/02 00:16:04;;;;;;;15.50;4.43;;;9.90;99.90;;;;;;5024238;28;20236;-82
2023/06/02 00:18:33;;;;;;;18.07;4.70;;;9.90;99.90;;;;;;5048504;28;20228;-82
2023/06/02 00:21:01;;;;;;;18.40;4.80;;;9.90;99.90;;;;;;5045778;28;20227;-82
2023/06/02 00:23:29;;;;;;;16.20;5.00;;;10.00;99.90;;;;;;5046206;28;20234;-83
2023/06/02 00:25:56;;;;;;;20.53;4.67;;;9.90;99.90;;;;;;5044398;28;20217;-82
2023/06/02 00:28:22;;;;;;;25.40;4.87;;;10.00;99.90;;;;;;5040970;28;20236;-82
2023/06/02 00:30:51;;;;;;;19.77;5.07;;;10.00;99.90;;;;;;5034039;28;20237;-83
2023/06/02 00:33:18;;;;;;;21.83;5.27;;;10.00;99.90;;;;;;5025004;28;20221;-82
2023/06/02 00:35:45;;;;;;;16.03;4.63;;;10.00;99.90;;;;;;5026164;28;20800;-82
2023/06/02 00:38:12;;;;;;;21.53;4.47;;;10.00;99.90;;;;;;5029199;28;20235;-83
2023/06/02 00:40:39;;;;;;;26.20;5.23;;;10.00;99.90;;;;;;5035048;28;20233;-83
2023/06/02 00:43:07;;;;;;;17.97;4.97;;;10.10;99.90;;;;;;5044569;28;20220;-82
2023/06/02 00:45:34;;;;;;;21.87;5.03;;;10.10;99.90;;;;;;5031252;28;20248;-82
2023/06/02 00:48:02;;;;;;;16.77;5.10;;;10.00;99.90;;;;;;5025681;28;20235;-82
2023/06/02 00:50:30;;;;;;;20.97;4.73;;;10.00;99.90;;;;;;5030343;28;20220;-82
2023/06/02 00:52:58;;;;;;;26.30;4.93;;;10.00;99.90;;;;;;5045437;28;20231;-82
2023/06/02 00:55:27;;;;;;;19.47;5.77;;;10.00;99.90;;;;;;5031085;28;20910;-82
2023/06/02 00:57:56;;;;;;;22.50;4.50;;;9.90;99.90;;;;;;5045678;28;20234;-82
2023/06/02 01:00:23;;;;;;;20.17;4.70;;;9.90;99.90;;;;;;5029638;28;21821;-82
2023/06/02 01:02:50;;;;;;;18.10;4.93;;;9.80;99.90;;;;;;5045925;28;20694;-82
2023/06/02 01:05:20;;;;;;;23.53;5.67;;;9.80;99.90;;;;;;5027032;28;20397;-82
2023/06/02 01:07:48;;;;;;;17.73;4.43;;;9.80;99.90;;;;;;5044763;28;20224;-80
2023/06/02 01:10:16;;;;;;;15.70;4.63;;;9.80;99.90;;;;;;5042891;28;20228;-81
2023/06/02 01:12:44;;;;;;;18.70;4.87;;;9.70;99.90;;;;;;5023462;28;20227;-83
2023/06/02 01:15:11;;;;;;;19.40;4.80;;;9.60;99.90;;;;;;5026846;28;20227;-83
2023/06/02 01:17:45;;;;;;;23.97;5.30;;;9.60;99.90;;;;;;5033286;28;20315;-83
2023/06/02 01:20:13;;;;;;;24.13;5.50;;;9.50;99.90;;;;;;5041795;28;20224;-82
2023/06/02 01:22:46;;;;;;;20.27;4.97;;;9.50;99.90;;;;;;5028171;28;20239;-82
2023/06/02 01:25:25;;;;;;;23.17;4.87;;;9.50;99.90;;;;;;5023535;28;20287;-82
2023/06/02 01:27:52;;;;;;;15.67;4.50;;;9.40;99.90;;;;;;5029374;28;20227;-82
2023/06/02 01:30:20;;;;;;;21.53;4.60;;;9.40;99.90;;;;;;5028406;28;20251;-83
2023/06/02 01:32:55;;;;;;;21.13;5.10;;;9.30;99.90;;;;;;5044665;28;20225;-81
2023/06/02 01:35:26;;;;;;;21.67;4.93;;;9.30;99.90;;;;;;5027405;28;20246;-81
2023/06/02 01:37:56;;;;;;;23.17;5.20;;;9.30;99.90;;;;;;5026826;28;20785;-80
2023/06/02 01:40:27;;;;;;;16.80;4.87;;;9.20;99.90;;;;;;5025936;28;20227;-81
2023/06/02 01:42:54;;;;;;;20.87;4.93;;;9.20;99.90;;;;;;5026468;28;20255;-80
2023/06/02 01:45:25;;;;;;;17.70;4.90;;;9.20;99.90;;;;;;5033648;28;20244;-81
2023/06/02 01:47:52;;;;;;;21.90;4.53;;;9.20;99.90;;;;;;5043511;28;20231;-81
2023/06/02 01:50:20;;;;;;;23.17;5.87;;;9.10;99.90;;;;;;5028646;28;20227;-80
2023/06/02 01:52:46;;;;;;;18.73;4.87;;;9.10;99.90;;;;;;5045461;28;20219;-80
2023/06/02 01:55:13;;;;;;;25.60;5.87;;;9.10;99.90;;;;;;5029952;28;20296;-80
2023/06/02 01:57:41;;;;;;;20.77;5.57;;;9.00;99.90;;;;;;5023004;28;20244;-81
2023/06/02 02:00:10;;;;;;;20.27;4.80;;;9.00;99.90;;;;;;5025961;28;20228;-79
2023/06/02 02:02:44;;;;;;;19.33;5.17;;;9.00;99.90;;;;;;5048040;28;20234;-80
2023/06/02 02:05:10;;;;;;;16.57;4.50;;;9.00;99.90;;;;;;5050477;28;20305;-80
2023/06/02 02:07:42;;;;;;;23.50;4.67;;;8.90;99.90;;;;;;5048814;28;20235;-80
2023/06/02 02:10:10;;;;;;;21.43;5.07;;;8.90;99.90;;;;;;5045451;28;20234;-80
2023/06/02 02:12:37;;;;;;;23.30;5.60;;;8.90;99.90;;;;;;5048217;28;20602;-80
2023/06/02 02:15:07;;;;;;;19.67;5.17;;;8.90;99.90;;;;;;5032802;28;20219;-80
2023/06/02 02:17:33;;;;;;;19.73;5.17;;;8.90;99.90;;;;;;5048190;28;20332;-81
2023/06/02 02:20:01;;;;;;;20.93;4.90;;;8.80;99.90;;;;;;5047908;28;20270;-80
2023/06/02 02:22:28;;;;;;;23.40;5.27;;;8.80;99.90;;;;;;5028314;28;20239;-80
2023/06/02 02:24:54;;;;;;;20.93;5.63;;;8.80;99.90;;;;;;5024788;28;20244;-79
2023/06/02 02:27:22;;;;;;;21.93;5.30;;;8.80;99.90;;;;;;5031086;28;20231;-79
2023/06/02 02:29:49;;;;;;;19.63;4.70;;;8.80;99.90;;;;;;5033076;28;20233;-80
2023/06/02 02:32:17;;;;;;;21.83;4.77;;;8.80;99.90;;;;;;5029732;28;20235;-80
2023/06/02 02:34:45;;;;;;;21.73;5.10;;;8.80;99.90;;;;;;5030500;28;20310;-81
2023/06/02 02:37:12;;;;;;;22.63;5.70;;;8.70;99.90;;;;;;5029171;28;20629;-80
2023/06/02 02:39:40;;;;;;;23.10;5.40;;;8.70;99.90;;;;;;5028040;28;20243;-80
2023/06/02 02:42:08;;;;;;;22.57;5.10;;;8.70;99.90;;;;;;5031993;28;20274;-80
2023/06/02 02:44:35;;;;;;;19.97;5.93;;;8.70;99.90;;;;;;5027014;28;20231;-80
2023/06/02 02:47:02;;;;;;;23.60;5.63;;;8.70;99.90;;;;;;5029811;28;20219;-80
2023/06/02 02:49:31;;;;;;;17.97;5.30;;;8.60;99.90;;;;;;5031910;28;20220;-81
2023/06/02 02:51:58;;;;;;;19.83;4.87;;;8.60;99.90;;;;;;5034042;28;20219;-81
2023/06/02 02:54:25;;;;;;;32.50;5.60;;;8.60;99.90;;;;;;5025655;28;20342;-81
2023/06/02 02:56:53;;;;;;;20.50;4.90;;;8.60;99.90;;;;;;5041643;28;20721;-81
2023/06/02 02:59:21;;;;;;;22.37;4.73;;;8.60;99.90;;;;;;5029988;28;20775;-81
2023/06/02 03:01:48;;;;;;;19.50;5.40;;;8.60;99.90;;;;;;5028060;28;20227;-79
2023/06/02 03:04:21;;;;;;;17.47;5.03;;;8.60;99.90;;;;;;5026194;28;20236;-79
2023/06/02 03:06:52;;;;;;;19.30;5.10;;;8.50;99.90;;;;;;5024750;28;20229;-80
2023/06/02 03:09:20;;;;;;;24.73;5.07;;;8.50;99.90;;;;;;5030401;28;20309;-80
2023/06/02 03:11:48;;;;;;;20.47;4.63;;;8.50;99.90;;;;;;5030284;28;20231;-80
2023/06/02 03:14:14;;;;;;;15.27;4.80;;;8.50;99.90;;;;;;5034769;28;20226;-79
2023/06/02 03:16:44;;;;;;;19.23;4.37;;;8.50;99.90;;;;;;5028983;28;20226;-79
2023/06/02 03:19:13;;;;;;;17.40;5.77;;;8.50;99.90;;;;;;5029414;28;20224;-79
2023/06/02 03:21:42;;;;;;;20.83;5.30;;;8.50;99.90;;;;;;5030454;28;20219;-79
2023/06/02 03:24:13;;;;;;;23.13;5.40;;;8.50;99.90;;;;;;5033814;28;20223;-78
2023/06/02 03:26:45;;;;;;;22.10;5.40;;;8.50;99.90;;;;;;5026549;28;20230;-79
2023/06/02 03:29:13;;;;;;;22.60;4.97;;;8.50;99.90;;;;;;5033832;28;20224;-80
2023/06/02 03:31:42;;;;;;;25.90;5.87;;;8.50;99.90;;;;;;5026811;28;20258;-79
2023/06/02 03:34:10;;;;;;;18.53;4.70;;;8.50;99.90;;;;;;5021447;28;20752;-79
2023/06/02 03:36:38;;;;;;;23.50;6.70;;;8.50;99.90;;;;;;5019512;28;20317;-79
2023/06/02 03:39:09;;;;;;;21.77;5.40;;;8.50;99.90;;;;;;5019618;28;20636;-79
2023/06/02 03:41:38;;;;;;;19.03;4.53;;;8.50;99.90;;;;;;5026645;28;20247;-79
2023/06/02 03:44:06;;;;;;;21.07;4.93;;;8.60;99.90;;;;;;5020702;28;20227;-79
2023/06/02 03:46:35;;;;;;;18.67;4.90;;;8.60;99.90;;;;;;5029697;28;20230;-78
2023/06/02 03:49:04;;;;;;;20.17;5.23;;;8.60;99.90;;;;;;5043717;28;20223;-78
2023/06/02 03:51:31;;;;;;;17.87;4.87;;;8.60;99.90;;;;;;5029189;28;20239;-78
2023/06/02 03:53:59;;;;;;;20.87;4.90;;;8.60;99.90;;;;;;5025494;28;20232;-79
2023/06/02 03:56:28;;;;;;;19.40;4.67;;;8.70;99.90;;;;;;5041834;28;20215;-79
2023/06/02 03:58:56;;;;;;;17.43;4.77;;;8.70;99.90;;;;;;5025634;28;20226;-79
2023/06/02 04:01:24;;;;;;;17.87;4.47;;;8.70;99.90;;;;;;5020576;28;20228;-78
2023/06/02 04:03:53;;;;;;;12.00;4.50;;;8.70;99.90;;;;;;5027435;28;20223;-78
2023/06/02 04:06:21;;;;;;;17.73;5.27;;;8.80;99.90;;;;;;5019055;28;20220;-78
2023/06/02 04:08:48;;;;;;;19.67;5.10;;;8.80;99.90;;;;;;5028544;28;20224;-78
2023/06/02 04:11:15;;;;;;;17.50;5.30;;;8.80;99.90;;;;;;5035997;28;20228;-79
2023/06/02 04:13:42;;;;;;;15.73;4.53;;;8.90;99.90;;;;;;5043385;28;20672;-78
2023/06/02 04:16:11;;;;;;;13.43;4.63;;;8.90;99.90;;;;;;5030701;28;20228;-78
2023/06/02 04:18:39;;;;;;;17.33;4.47;;;8.90;99.90;;;;;;5019934;28;20212;-78
2023/06/02 04:21:07;;;;;;;17.70;4.67;;;9.00;99.90;;;;;;5030817;28;20233;-80
2023/06/02 04:23:34;;;;;;;21.37;5.93;;;9.00;99.90;;;;;;5023409;28;20242;-79
2023/06/02 04:26:01;;;;;;;16.57;5.00;;;9.00;99.90;;;;;;5030486;28;20238;-79
2023/06/02 04:28:28;;;;;;;18.13;4.83;;;9.10;99.90;;;;;;5026010;28;20754;-80
2023/06/02 04:30:57;;;;;;;14.67;4.67;;;9.10;99.90;;;;;;5041972;28;20216;-78
2023/06/02 04:33:27;;;;;;;20.33;4.43;;;9.10;99.90;;;;;;5024727;28;20486;-79
2023/06/02 04:35:56;;;;;;;19.73;4.47;;;9.20;99.90;;;;;;5023840;28;20220;-80
2023/06/02 04:38:23;;;;;;;16.07;4.13;;;9.20;99.90;;;;;;5026414;28;20247;-81
2023/06/02 04:40:50;;;;;;;17.80;5.83;;;9.30;99.90;;;;;;5026924;28;20224;-80
2023/06/02 04:43:18;;;;;;;16.80;4.93;;;9.30;99.90;;;;;;5018784;28;20231;-78
2023/06/02 04:45:45;;;;;;;15.87;5.03;;;9.30;99.90;;;;;;5020199;28;20251;-80
2023/06/02 04:48:15;;;;;;;13.37;4.30;;;9.40;99.90;;;;;;5023866;28;20614;-78
2023/06/02 04:50:43;;;;;;;14.83;4.07;;;9.40;99.90;;;;;;5023790;28;20250;-78
2023/06/02 04:53:11;;;;;;;13.77;4.60;;;9.40;99.90;;;;;;5029743;28;20270;-79
2023/06/02 04:55:38;;;;;;;15.40;5.80;;;9.50;99.90;;;;;;5025547;28;20222;-77
2023/06/02 04:58:05;;;;;;;20.77;5.23;;;9.50;99.90;;;;;;5024057;28;20855;-81
2023/06/02 05:00:34;;;;;;;12.37;4.97;;;9.60;99.90;;;;;;5025312;28;20277;-81
2023/06/02 05:03:01;;;;;;;24.20;9.70;;;9.60;99.90;;;;;;5022880;28;20317;-81
2023/06/02 05:05:29;;;;;;;17.43;6.83;;;9.60;99.90;;;;;;5020084;28;20217;-79
2023/06/02 05:07:58;;;;;;;11.53;5.43;;;9.70;99.90;;;;;;5022293;28;20278;-80
2023/06/02 05:10:25;;;;;;;14.67;4.40;;;9.80;99.90;;;;;;5024792;28;20233;-79
2023/06/02 05:12:53;;;;;;;13.37;4.00;;;9.80;99.90;;;;;;5024137;28;20228;-79
2023/06/02 05:15:20;;;;;;;15.30;4.97;;;9.80;99.90;;;;;;5017186;28;20224;-80
2023/06/02 05:17:48;;;;;;;12.80;5.33;;;9.90;99.90;;;;;;5026379;28;20277;-79
2023/06/02 05:20:18;;;;;;;14.60;6.37;;;10.00;99.90;;;;;;5021063;28;20237;-79
2023/06/02 05:22:45;;;;;;;10.43;4.63;;;10.10;99.90;;;;;;5023053;28;20216;-80
2023/06/02 05:25:13;;;;;;;14.00;4.17;;;10.20;99.90;;;;;;5022870;28;20218;-79
2023/06/02 05:27:41;;;;;;;13.17;3.70;;;10.40;99.90;;;;;;5030820;28;20361;-79
2023/06/02 05:30:09;;;;;;;11.67;3.80;;;10.50;99.90;;;;;;5022919;28;20245;-80
2023/06/02 05:32:37;;;;;;;13.43;3.80;;;10.60;99.90;;;;;;5025372;28;20216;-79
2023/06/02 05:35:07;;;;;;;9.20;3.83;;;10.70;99.90;;;;;;5029184;28;20229;-79
2023/06/02 05:37:34;;;;;;;12.80;3.57;;;10.80;99.90;;;;;;5023497;28;20232;-79
2023/06/02 05:40:01;;;;;;;9.97;3.97;;;11.00;99.90;;;;;;5028259;28;20279;-79
2023/06/02 05:42:29;;;;;;;10.77;4.30;;;11.10;99.90;;;;;;5040309;28;20295;-80
2023/06/02 05:44:56;;;;;;;10.00;4.10;;;11.20;99.90;;;;;;5027827;28;20805;-79
2023/06/02 05:47:23;;;;;;;17.10;6.13;;;11.40;99.90;;;;;;5037378;28;20285;-79
2023/06/02 05:49:50;;;;;;;13.17;4.47;;;11.50;99.90;;;;;;5026162;28;20232;-79
2023/06/02 05:52:17;;;;;;;11.77;4.60;;;11.60;99.90;;;;;;5026418;28;20597;-80
2023/06/02 05:54:44;;;;;;;13.43;5.27;;;11.70;99.90;;;;;;5030722;28;20221;-80
2023/06/02 05:57:12;;;;;;;10.50;4.20;;;11.80;99.90;;;;;;5025869;28;20587;-81
2023/06/02 05:59:41;;;;;;;11.13;4.30;;;11.90;99.90;;;;;;5029809;28;20227;-80
2023/06/02 06:02:07;;;;;;;13.40;4.20;;;11.90;99.90;;;;;;5008689;28;20231;-81
2023/06/02 06:04:34;;;;;;;10.87;4.57;;;12.10;99.90;;;;;;5039165;28;20225;-81
2023/06/02 06:07:02;;;;;;;12.37;4.53;;;12.20;99.90;;;;;;5028774;28;20736;-81
2023/06/02 06:09:29;;;;;;;8.90;3.83;;;12.30;99.90;;;;;;5041966;28;20364;-80
2023/06/02 06:11:56;;;;;;;10.33;4.60;;;12.40;99.90;;;;;;5031227;28;20232;-82
2023/06/02 06:14:23;;;;;;;11.73;4.40;;;12.40;99.90;;;;;;5024796;28;20231;-79
2023/06/02 06:16:52;;;;;;;11.13;4.30;;;12.50;99.90;;;;;;5038629;28;20220;-82
2023/06/02 06:19:19;;;;;;;9.03;4.27;;;12.50;99.90;;;;;;5027753;28;20313;-80
2023/06/02 06:21:45;;;;;;;11.67;4.50;;;12.60;99.90;;;;;;5031604;28;21497;-82
2023/06/02 06:24:12;;;;;;;11.30;4.27;;;12.60;99.90;;;;;;5024321;28;20242;-81
2023/06/02 06:26:39;;;;;;;13.97;5.10;;;12.60;99.90;;;;;;5027652;28;20716;-81
2023/06/02 06:29:06;;;;;;;12.47;4.97;;;12.60;99.90;;;;;;5044124;28;20300;-80
2023/06/02 06:31:34;;;;;;;12.40;4.73;;;12.60;99.90;;;;;;5022814;28;20232;-80
2023/06/02 06:34:04;;;;;;;9.03;4.60;;;12.70;99.90;;;;;;5026133;28;20224;-80
2023/06/02 06:36:33;;;;;;;16.53;5.17;;;12.70;99.90;;;;;;5021088;28;20218;-80
2023/06/02 06:39:00;;;;;;;12.17;4.17;;;12.70;99.90;;;;;;5029467;28;20228;-81
2023/06/02 06:41:27;;;;;;;11.30;4.53;;;12.70;99.90;;;;;;5026434;28;20250;-81
2023/06/02 06:43:54;;;;;;;13.30;4.53;;;12.90;99.90;;;;;;5025147;28;20258;-81
2023/06/02 06:46:21;;;;;;;14.60;4.97;;;13.00;99.90;;;;;;5030495;28;20218;-80
2023/06/02 06:48:50;;;;;;;11.40;4.23;;;13.20;99.90;;;;;;5031365;28;20222;-85
2023/06/02 06:51:18;;;;;;;9.43;4.73;;;13.40;99.90;;;;;;5028118;28;20234;-79
2023/06/02 06:53:45;;;;;;;12.37;4.37;;;13.50;99.90;;;;;;5043507;28;20233;-79
2023/06/02 06:56:12;;;;;;;12.27;5.03;;;13.70;99.90;;;;;;5046694;28;20222;-82
2023/06/02 06:58:39;;;;;;;12.43;4.50;;;13.80;99.90;;;;;;5042490;28;20221;-82
2023/06/02 07:01:05;;;;;;;9.73;4.77;;;13.80;99.90;;;;;;5031095;28;20227;-80
2023/06/02 07:03:32;;;;;;;11.93;5.93;;;13.90;99.90;;;;;;5043974;28;20234;-79
2023/06/02 07:05:59;;;;;;;14.03;4.97;;;14.00;99.90;;;;;;5047454;28;20222;-80
2023/06/02 07:08:28;;;;;;;11.83;5.10;;;14.00;99.90;;;;;;5048556;28;20915;-80
2023/06/02 07:10:55;;;;;;;11.77;5.13;;;14.10;99.90;;;;;;5048345;28;20231;-81
2023/06/02 07:13:21;;;;;;;12.23;6.13;;;14.10;99.90;;;;;;5046118;28;20221;-79
2023/06/02 07:15:49;;;;;;;11.30;5.70;;;14.10;99.90;;;;;;5044562;28;20308;-84
2023/06/02 07:18:15;;;;;;;9.43;4.77;;;14.10;99.90;;;;;;5040607;28;20233;-82
2023/06/02 07:20:42;;;;;;;14.13;5.33;;;14.10;99.90;;;;;;5048954;28;20609;-80
2023/06/02 07:23:09;;;;;;;16.83;5.63;;;14.20;99.90;;;;;;5031313;28;20250;-81
2023/06/02 07:25:37;;;;;;;11.80;5.63;;;14.20;99.90;;;;;;5051506;28;20223;-80
2023/06/02 07:28:05;;;;;;;13.43;5.00;;;14.40;99.90;;;;;;5035245;28;20631;-82
2023/06/02 07:30:32;;;;;;;10.30;4.80;;;14.60;99.90;;;;;;5048403;28;20250;-78
2023/06/02 07:32:59;;;;;;;10.10;5.63;;;14.90;99.90;;;;;;5032490;28;20212;-78
2023/06/02 07:35:25;;;;;;;12.53;4.80;;;15.20;99.90;;;;;;5033050;28;20219;-78
2023/06/02 07:37:53;;;;;;;11.93;5.23;;;15.50;99.90;;;;;;5048352;28;20248;-79
2023/06/02 07:40:20;;;;;;;8.13;4.70;;;15.80;99.90;;;;;;5041170;28;20228;-80
2023/06/02 07:42:48;;;;;;;11.77;5.10;;;16.00;99.90;;;;;;5026035;28;20223;-79
2023/06/02 07:45:15;;;;;;;10.87;4.20;;;16.00;99.90;;;;;;5029703;28;20232;-82
2023/06/02 07:47:41;;;;;;;9.27;4.67;;;16.10;99.90;;;;;;5039534;28;20212;-82
2023/06/02 07:50:09;;;;;;;9.87;4.40;;;16.20;99.90;;;;;;5038859;28;20236;-83
2023/06/02 07:52:35;;;;;;;7.60;4.20;;;16.40;99.90;;;;;;5043257;28;20248;-88
2023/06/02 07:55:03;;;;;;;8.20;4.32;;;16.60;99.90;;;;;;5042192;28;20220;-80
2023/06/02 07:57:29;;;;;;;7.65;4.15;;;16.80;99.90;;;;;;5037970;28;20224;-79
2023/06/02 07:59:57;;;;;;;10.43;3.70;;;17.00;99.90;;;;;;5040502;28;20232;-79
2023/06/02 08:02:24;;;;;;;6.95;4.00;;;17.20;99.90;;;;;;5040669;28;20730;-85
2023/06/02 08:04:51;;;;;;;9.20;4.43;;;17.30;99.90;;;;;;5043049;28;20227;-81
2023/06/02 08:07:17;;;;;;;8.82;4.40;;;17.40;99.90;;;;;;5038755;28;20228;-85
2023/06/02 08:09:44;;;;;;;10.27;3.83;;;17.50;99.90;;;;;;5024927;28;20223;-79
2023/06/02 08:12:11;;;;;;;6.78;3.42;;;17.60;99.90;;;;;;5021862;28;20216;-84
2023/06/02 08:14:37;;;;;;;7.03;3.65;;;17.60;99.90;;;;;;5043112;28;20224;-85
2023/06/02 08:17:06;;;;;;;5.30;3.25;;;17.70;99.90;;;;;;5038764;28;20231;-79
2023/06/02 08:19:33;;;;;;;6.60;3.10;;;17.80;99.90;;;;;;5038636;28;20266;-79
2023/06/02 08:22:00;;;;;;;6.53;3.47;;;17.80;99.90;;;;;;5041046;28;20594;-81
2023/06/02 08:24:28;;;;;;;9.63;3.50;;;17.70;99.90;;;;;;5043092;28;20255;-81
2023/06/02 08:26:55;;;;;;;8.13;3.35;;;17.70;99.90;;;;;;5029153;28;20220;-79
2023/06/02 08:29:23;;;;;;;8.25;3.75;;;17.70;99.90;;;;;;5040388;28;20232;-79
2023/06/02 08:31:50;;;;;;;7.53;3.00;;;17.60;99.90;;;;;;5040787;28;20244;-79
2023/06/02 08:34:20;;;;;;;7.80;3.13;;;17.70;99.90;;;;;;5039720;28;20580;-80
2023/06/02 08:36:52;;;;;;;7.10;3.17;;;17.90;99.90;;;;;;5035128;28;20696;-79
2023/06/02 08:39:18;;;;;;;6.45;3.00;;;18.30;99.90;;;;;;5015313;28;20315;-80
2023/06/02 08:41:47;;;;;;;4.72;2.55;;;18.80;99.90;;;;;;5026232;28;20228;-81
2023/06/02 08:44:14;;;;;;;7.95;3.17;;;19.50;99.90;;;;;;5025123;28;20278;-79
2023/06/02 08:46:42;;;;;;;4.82;2.60;;;20.00;99.90;;;;;;5039713;28;20224;-80
2023/06/02 08:49:14;;;;;;;5.50;2.78;;;20.50;99.70;;;;;;5040887;28;20224;-80
2023/06/02 08:51:44;;;;;;;4.82;2.28;;;21.00;98.80;;;;;;5041967;28;20252;-79
2023/06/02 08:54:11;;;;;;;5.05;2.50;;;21.50;97.00;;;;;;5026111;28;20308;-79
2023/06/02 08:56:40;;;;;;;3.60;2.17;;;21.80;97.30;;;;;;5038282;28;20294;-80
2023/06/02 08:59:07;;;;;;;5.85;2.35;;;22.00;96.30;;;;;;5023774;28;20628;-79
2023/06/02 09:01:34;;;;;;;5.32;2.50;;;22.20;95.60;;;;;;5042026;28;20224;-82
2023/06/02 09:04:00;;;;;;;5.22;2.40;;;22.20;95.10;;;;;;5040486;28;20405;-81
2023/06/02 09:06:28;;;;;;;2.70;1.88;;;22.10;95.00;;;;;;5027929;28;20224;-79
2023/06/02 09:08:58;;;;;;;6.00;2.22;;;22.20;95.10;;;;;;5041555;28;20270;-79
2023/06/02 09:11:26;;;;;;;6.30;2.78;;;22.20;94.50;;;;;;5039947;28;20220;-82
2023/06/02 09:13:54;;;;;;;5.20;2.30;;;22.30;94.30;;;;;;5043389;28;20603;-81
2023/06/02 09:16:21;;;;;;;5.70;2.55;;;22.40;94.00;;;;;;5035212;28;20652;-79
2023/06/02 09:18:58;;;;;;;6.13;2.38;;;22.50;93.70;;;;;;5040900;28;20212;-80
2023/06/02 09:21:26;;;;;;;4.80;2.40;;;22.50;92.00;;;;;;5031578;28;20223;-83
2023/06/02 09:23:54;;;;;;;6.72;2.08;;;22.50;92.80;;;;;;5042450;28;20228;-80
2023/06/02 09:26:23;;;;;;;3.05;2.00;;;22.40;92.80;;;;;;5021684;28;20232;-80
2023/06/02 09:29:02;;;;;;;5.18;2.75;;;22.50;93.30;;;;;;5037592;28;20243;-80
2023/06/02 09:31:42;;;;;;;4.07;2.20;;;22.70;92.90;;;;;;5039184;28;20234;-79
2023/06/02 09:34:09;;;;;;;4.70;1.55;;;23.00;92.20;;;;;;5039243;28;20235;-79
2023/06/02 09:36:36;;;;;;;3.53;2.00;;;23.20;91.10;;;;;;5042297;28;20222;-79
2023/06/02 09:39:03;;;;;;;5.38;2.00;;;23.20;89.70;;;;;;5042077;28;20226;-79
2023/06/02 09:41:32;;;;;;;3.17;2.00;;;23.00;89.90;;;;;;5040648;28;20225;-79
2023/06/02 09:44:00;;;;;;;4.43;1.83;;;22.90;90.20;;;;;;5043617;28;20216;-79
2023/06/02 09:46:31;;;;;;;3.95;1.67;;;22.90;90.80;;;;;;5040160;28;20774;-79
2023/06/02 09:49:01;;;;;;;3.08;1.65;;;23.10;90.50;;;;;;5041915;28;20227;-79
2023/06/02 09:51:27;;;;;;;3.00;1.70;;;23.40;90.10;;;;;;5024789;28;20224;-79
2023/06/02 09:53:55;;;;;;;3.03;1.60;;;23.60;89.40;;;;;;5024764;28;20224;-79
2023/06/02 09:56:22;;;;;;;3.38;1.98;;;24.00;88.90;;;;;;5040882;28;20216;-79
2023/06/02 09:58:50;;;;;;;4.22;1.50;;;24.30;86.80;;;;;;5039398;28;20219;-79
2023/06/02 10:01:17;;;;;;;2.67;1.60;;;24.60;85.50;;;;;;5020963;28;20227;-79
2023/06/02 10:03:44;;;;;;;2.35;1.38;;;24.80;84.00;;;;;;5022226;28;20244;-79
2023/06/02 10:06:20;;;;;;;3.83;1.67;;;24.90;82.10;;;;;;5038560;28;20718;-78
2023/06/02 10:09:02;;;;;;;4.13;1.52;;;24.90;79.60;;;;;;5040964;28;20224;-78
2023/06/02 10:11:36;;;;;;;3.63;1.60;;;24.80;79.40;;;;;;5037671;28;20258;-79
2023/06/02 10:14:20;;;;;;;2.13;1.15;;;24.70;79.30;;;;;;5038018;28;20853;-79
2023/06/02 10:16:59;;;;;;;2.83;1.17;;;24.70;78.50;;;;;;5022813;28;20230;-79
2023/06/02 10:20:07;;;;;;;1.50;1.20;;;24.70;79.00;;;;;;5025144;28;20238;-79
2023/06/02 10:22:51;;;;;;;3.78;1.17;;;24.70;78.90;;;;;;5042586;28;20227;-79
2023/06/02 10:25:27;;;;;;;2.85;1.42;;;24.90;77.10;;;;;;5042794;28;20637;-79
2023/06/02 10:27:55;;;;;;;2.03;1.27;;;25.00;76.70;;;;;;5025702;28;20224;-79
2023/06/02 10:30:24;;;;;;;2.22;1.40;;;25.10;75.80;;;;;;5042837;28;20227;-79
2023/06/02 10:32:52;;;;;;;1.83;1.23;;;25.10;74.80;;;;;;5044617;28;20269;-78
2023/06/02 10:35:19;;;;;;;2.03;1.30;;;25.10;75.30;;;;;;5043500;28;20270;-79
2023/06/02 10:37:46;;;;;;;1.95;1.10;;;25.10;74.60;;;;;;5030100;28;20240;-79
2023/06/02 10:40:14;;;;;;;2.65;1.20;;;25.10;74.50;;;;;;5037045;28;20238;-79
2023/06/02 10:43:12;;;;;;;5.97;1.30;;;24.90;70.20;;;;;;5045255;28;20575;-79
2023/06/02 10:45:42;;;;;;;2.28;1.40;;;24.50;70.60;;;;;;5043981;28;20324;-79
2023/06/02 10:48:37;;;;;;;1.83;1.17;;;24.10;70.80;;;;;;5043616;28;20311;-79
2023/06/02 10:51:04;;;;;;;2.13;1.30;;;23.70;70.90;;;;;;5044663;28;20228;-79
2023/06/02 10:53:32;;;;;;;5.88;1.27;;;23.40;70.70;;;;;;5046995;28;20228;-79
2023/06/02 10:56:42;;;;;;;5.07;1.10;;;23.20;70.80;;;;;;5044999;28;20289;-79
2023/06/02 10:59:09;;;;;;;2.67;1.17;;;23.20;72.10;;;;;;5045560;28;20216;-82
2023/06/02 11:01:47;;;;;;;2.60;1.17;;;23.50;72.80;;;;;;5025409;28;20212;-78
2023/06/02 11:04:32;;;;;;;1.77;1.10;;;23.90;69.70;;;;;;5043618;28;20223;-78
2023/06/02 11:07:15;;;;;;;1.38;1.08;;;24.40;70.00;;;;;;5043878;28;20231;-79
2023/06/02 11:09:43;;;;;;;2.92;1.20;;;24.80;69.00;;;;;;5038873;28;20671;-79
2023/06/02 11:12:10;;;;;;;3.72;1.13;;;25.00;67.50;;;;;;5042748;28;20281;-79
2023/06/02 11:15:14;;;;;;;4.28;1.10;;;25.20;65.80;;;;;;5025292;28;20227;-79
2023/06/02 11:17:43;;;;;;;2.03;1.20;;;25.20;63.30;;;;;;5043278;28;20255;-79
2023/06/02 11:20:13;;;;;;;3.72;1.40;;;25.20;63.10;;;;;;5041102;28;20321;-79
2023/06/02 11:22:40;;;;;;;5.45;1.30;;;25.10;63.40;;;;;;5023813;28;20236;-78
2023/06/02 11:25:08;;;;;;;2.80;1.23;;;25.10;63.30;;;;;;5044195;28;20581;-79
2023/06/02 11:27:37;;;;;;;4.70;1.45;;;25.00;62.80;;;;;;5045627;28;20849;-79
2023/06/02 11:30:06;;;;;;;6.05;1.17;;;25.00;62.40;;;;;;5044682;28;20243;-79
2023/06/02 11:32:33;;;;;;;5.47;1.05;;;24.90;62.00;;;;;;5042795;28;20239;-79
2023/06/02 11:35:07;;;;;;;3.58;1.27;;;24.80;61.50;;;;;;5044400;28;20586;-79
2023/06/02 11:37:36;;;;;;;5.65;1.70;;;24.60;61.00;;;;;;5043714;28;20331;-79
2023/06/02 11:40:05;;;;;;;8.88;1.67;;;24.50;62.70;;;;;;5046301;28;20349;-79
2023/06/02 11:42:36;;;;;;;2.42;1.60;;;24.30;61.50;;;;;;5041235;28;20324;-79
2023/06/02 11:45:03;;;;;;;6.43;1.80;;;24.10;60.90;;;;;;5044548;28;20223;-79
2023/06/02 11:47:30;;;;;;;8.10;1.52;;;23.80;61.20;;;;;;5043156;28;20714;-78
2023/06/02 11:49:57;;;;;;;3.00;1.42;;;23.60;61.50;;;;;;5043806;28;20706;-79
2023/06/02 11:52:25;;;;;;;3.28;1.40;;;23.40;62.30;;;;;;5045235;28;20611;-78
2023/06/02 11:54:52;;;;;;;4.55;1.75;;;23.20;62.70;;;;;;5042700;28;20217;-79
2023/06/02 11:57:29;;;;;;;4.55;1.40;;;23.10;62.20;;;;;;5042194;28;20230;-79
2023/06/02 12:00:19;;;;;;;5.13;1.30;;;23.10;62.30;;;;;;5043014;28;20276;-79
2023/06/02 12:02:52;;;;;;;5.63;1.30;;;23.10;62.20;;;;;;5031505;28;20238;-78
2023/06/02 12:05:30;;;;;;;6.38;1.50;;;23.10;61.10;;;;;;5030308;28;20224;-79
2023/06/02 12:08:08;;;;;;;2.72;1.42;;;23.10;61.40;;;;;;5033724;28;20220;-79
2023/06/02 12:10:35;;;;;;;4.80;1.25;;;23.10;61.40;;;;;;5025157;28;20227;-79
2023/06/02 12:13:01;;;;;;;2.53;1.20;;;23.10;61.00;;;;;;5040911;28;20223;-79
2023/06/02 12:15:33;;;;;;;3.08;1.38;;;23.20;61.10;;;;;;5044120;28;20300;-79
2023/06/02 12:18:04;;;;;;;1.80;1.13;;;23.30;61.90;;;;;;5024748;28;20703;-79
2023/06/02 12:20:35;;;;;;;6.90;1.50;;;23.60;61.60;;;;;;5045050;28;20228;-79
2023/06/02 12:23:03;;;;;;;2.33;1.17;;;23.80;60.30;;;;;;5044590;28;20231;-79
2023/06/02 12:25:30;;;;;;;2.67;1.08;;;24.10;60.30;;;;;;5028800;28;20255;-78
2023/06/02 12:28:07;;;;;;;2.58;1.00;;;24.20;59.10;;;;;;5042637;28;20842;-78
2023/06/02 12:30:34;;;;;;;3.10;1.15;;;24.30;58.50;;;;;;5040988;28;20228;-78
2023/06/02 12:33:11;;;;;;;1.38;1.15;;;24.30;57.90;;;;;;5040841;28;20228;-79
2023/06/02 12:35:38;;;;;;;2.13;1.02;;;24.30;56.70;;;;;;5044024;28;20294;-78
2023/06/02 12:38:08;;;;;;;2.53;1.20;;;24.30;56.90;;;;;;5043904;28;20220;-78
2023/06/02 12:40:35;;;;;;;1.90;1.08;;;24.40;57.90;;;;;;5045115;28;20606;-78
2023/06/02 12:43:02;;;;;;;2.63;1.10;;;24.40;57.60;;;;;;5042625;28;20215;-78
2023/06/02 12:45:30;;;;;;;1.95;1.10;;;24.40;57.00;;;;;;5042239;28;20774;-78
2023/06/02 12:47:57;;;;;;;2.67;1.08;;;24.50;56.30;;;;;;5040601;28;20212;-78
2023/06/02 12:50:24;;;;;;;1.77;1.02;;;24.40;55.40;;;;;;5045614;28;20421;-78
2023/06/02 12:52:52;;;;;;;3.35;1.08;;;24.30;55.70;;;;;;5045531;28;20223;-78
2023/06/02 12:55:20;;;;;;;1.50;1.13;;;24.30;56.10;;;;;;5027357;28;20243;-78